Time;durP1;ratioP1;P1;durP2;ratioP2;P2;SDS_P1;SDS_P2;PMS_P1;PMS_P2;Temp;Humidity;BMP_temperature;BMP_pressure;BME280_temperature;BME280_humidity;BME280_pressure;Samples;Min_cycle;Max_cycle;Signal;HPM_P1;HPM_P2
2023/11/11 00:00:39;;;;;;;130.38;120.00;;;;;;;;;;5000427;28;25075;-71
2023/11/11 00:03:06;;;;;;;125.35;116.13;;;;;;;;;;4997224;28;25121;-71
2023/11/11 00:05:32;;;;;;;122.47;113.22;;;;;;;;;;5003503;28;25075;-72
2023/11/11 00:07:58;;;;;;;121.78;112.85;;;;;;;;;;5000344;28;25143;-72
2023/11/11 00:10:25;;;;;;;123.47;114.47;;;;;;;;;;4992942;28;25065;-70
2023/11/11 00:12:54;;;;;;;125.80;116.60;;;;;;;;;;4995676;28;25149;-71
2023/11/11 00:15:20;;;;;;;113.80;106.00;;;;;;;;;;5005350;28;25059;-70
2023/11/11 00:17:46;;;;;;;112.75;105.10;;;;;;;;;;4998342;28;25157;-72
2023/11/11 00:20:12;;;;;;;116.80;108.72;;;;;;;;;;4998569;28;25055;-71
2023/11/11 00:22:43;;;;;;;111.35;103.85;;;;;;;;;;4996279;28;25047;-72
2023/11/11 00:25:09;;;;;;;107.97;101.13;;;;;;;;;;4988471;28;25084;-72
2023/11/11 00:27:35;;;;;;;111.65;104.25;;;;;;;;;;4989501;28;25061;-71
2023/11/11 00:30:06;;;;;;;112.13;104.93;;;;;;;;;;4992945;28;25053;-71
2023/11/11 00:32:33;;;;;;;110.40;103.47;;;;;;;;;;5005514;28;25058;-72
2023/11/11 00:34:59;;;;;;;103.97;97.68;;;;;;;;;;4992927;28;25073;-72
2023/11/11 00:37:26;;;;;;;103.97;97.15;;;;;;;;;;4989544;28;25067;-72
2023/11/11 00:39:52;;;;;;;100.90;94.97;;;;;;;;;;4998051;28;25151;-71
2023/11/11 00:42:18;;;;;;;98.07;92.47;;;;;;;;;;4991714;28;25058;-72
2023/11/11 00:44:44;;;;;;;98.75;92.35;;;;;;;;;;4998630;28;25102;-71
2023/11/11 00:47:13;;;;;;;100.05;93.78;;;;;;;;;;4984413;28;25089;-72
2023/11/11 00:49:41;;;;;;;102.05;96.03;;;;;;;;;;4999789;28;25066;-71
2023/11/11 00:52:07;;;;;;;108.55;101.57;;;;;;;;;;4989123;28;25129;-71
2023/11/11 00:54:33;;;;;;;110.25;102.97;;;;;;;;;;4990846;28;25093;-72
2023/11/11 00:57:00;;;;;;;122.82;114.50;;;;;;;;;;5002534;28;25112;-73
2023/11/11 00:59:27;;;;;;;124.78;116.75;;;;;;;;;;5001073;28;25057;-72
2023/11/11 01:01:53;;;;;;;126.10;118.03;;;;;;;;;;4998914;28;25050;-71
2023/11/11 01:04:19;;;;;;;125.72;117.50;;;;;;;;;;4997965;28;25152;-71
2023/11/11 01:06:45;;;;;;;123.68;115.82;;;;;;;;;;5011367;28;25139;-70
2023/11/11 01:09:13;;;;;;;123.97;115.85;;;;;;;;;;4990326;28;25075;-71
2023/11/11 01:11:41;;;;;;;125.40;117.20;;;;;;;;;;4997052;28;25107;-70
2023/11/11 01:14:08;;;;;;;124.18;115.82;;;;;;;;;;4997559;28;25104;-70
2023/11/11 01:16:34;;;;;;;125.43;116.63;;;;;;;;;;4997927;28;25067;-72
2023/11/11 01:19:00;;;;;;;124.78;116.22;;;;;;;;;;5000989;28;25090;-72
2023/11/11 01:21:26;;;;;;;128.65;120.13;;;;;;;;;;5002062;28;25081;-71
2023/11/11 01:23:52;;;;;;;124.40;116.22;;;;;;;;;;4997471;28;25162;-71
2023/11/11 01:26:19;;;;;;;126.88;117.93;;;;;;;;;;5006071;28;25072;-70
2023/11/11 01:28:45;;;;;;;124.95;116.60;;;;;;;;;;4998115;28;25094;-72
2023/11/11 01:31:11;;;;;;;122.82;114.78;;;;;;;;;;4999372;28;25103;-71
2023/11/11 01:33:37;;;;;;;129.50;120.75;;;;;;;;;;4999038;28;25068;-71
2023/11/11 01:36:04;;;;;;;131.20;121.75;;;;;;;;;;4994538;28;25063;-71
2023/11/11 01:38:30;;;;;;;129.32;120.63;;;;;;;;;;4998714;28;25086;-72
2023/11/11 01:40:56;;;;;;;130.38;121.65;;;;;;;;;;4994136;28;25088;-71
2023/11/11 01:43:26;;;;;;;134.18;124.72;;;;;;;;;;5000671;28;25101;-71
2023/11/11 01:45:55;;;;;;;130.95;122.40;;;;;;;;;;4995362;28;25112;-70
2023/11/11 01:48:21;;;;;;;140.55;130.60;;;;;;;;;;5007412;28;25126;-71
2023/11/11 01:50:47;;;;;;;146.20;135.73;;;;;;;;;;5011711;28;25062;-71
2023/11/11 01:53:15;;;;;;;149.48;138.45;;;;;;;;;;4999840;28;25093;-72
2023/11/11 01:55:41;;;;;;;148.77;137.70;;;;;;;;;;4992230;28;25084;-71
2023/11/11 01:58:09;;;;;;;148.80;137.85;;;;;;;;;;4984565;28;25058;-72
2023/11/11 02:00:38;;;;;;;148.57;137.65;;;;;;;;;;5006062;28;24879;-73
2023/11/11 02:03:04;;;;;;;150.88;139.10;;;;;;;;;;5010443;28;25101;-72
2023/11/11 02:05:30;;;;;;;152.20;139.85;;;;;;;;;;5015574;28;25066;-72
2023/11/11 02:07:57;;;;;;;162.15;148.52;;;;;;;;;;5008446;28;25054;-72
2023/11/11 02:10:24;;;;;;;162.00;147.98;;;;;;;;;;4997188;28;25077;-71
2023/11/11 02:12:50;;;;;;;160.85;147.20;;;;;;;;;;5014112;28;25114;-70
2023/11/11 02:15:16;;;;;;;156.93;143.20;;;;;;;;;;5016653;28;25058;-70
2023/11/11 02:17:42;;;;;;;163.63;149.73;;;;;;;;;;5030838;28;25094;-72
2023/11/11 02:20:11;;;;;;;165.48;151.05;;;;;;;;;;5020743;28;25045;-70
2023/11/11 02:22:37;;;;;;;168.23;153.40;;;;;;;;;;5012301;28;25062;-70
2023/11/11 02:25:05;;;;;;;166.38;151.32;;;;;;;;;;5013324;28;25080;-71
2023/11/11 02:27:31;;;;;;;167.80;153.18;;;;;;;;;;5017640;28;25102;-72
2023/11/11 02:29:57;;;;;;;160.10;146.20;;;;;;;;;;5024189;28;25049;-70
2023/11/11 02:32:23;;;;;;;158.25;145.20;;;;;;;;;;5028214;28;25095;-73
2023/11/11 02:34:50;;;;;;;158.18;144.68;;;;;;;;;;5027864;28;25055;-71
2023/11/11 02:37:16;;;;;;;154.82;141.95;;;;;;;;;;5005294;28;25099;-71
2023/11/11 02:39:42;;;;;;;160.23;146.77;;;;;;;;;;5012324;28;25070;-72
2023/11/11 02:42:08;;;;;;;159.05;145.70;;;;;;;;;;4991664;28;25054;-72
2023/11/11 02:44:34;;;;;;;155.98;143.27;;;;;;;;;;4994410;28;25058;-71
2023/11/11 02:47:00;;;;;;;157.55;144.52;;;;;;;;;;4996630;28;25076;-72
2023/11/11 02:49:26;;;;;;;153.80;141.15;;;;;;;;;;4996767;28;25146;-71
2023/11/11 02:51:56;;;;;;;153.73;141.52;;;;;;;;;;4996399;28;25108;-71
2023/11/11 02:54:22;;;;;;;154.15;141.90;;;;;;;;;;4997711;28;25127;-71
2023/11/11 02:56:48;;;;;;;151.88;140.00;;;;;;;;;;4994164;28;25065;-71
2023/11/11 02:59:14;;;;;;;147.63;136.23;;;;;;;;;;5003627;28;25153;-71
2023/11/11 03:01:41;;;;;;;151.98;140.50;;;;;;;;;;5011839;28;25068;-71
2023/11/11 03:04:07;;;;;;;150.07;138.63;;;;;;;;;;5009852;28;25100;-71
2023/11/11 03:06:33;;;;;;;143.25;132.88;;;;;;;;;;5007775;28;25083;-72
2023/11/11 03:09:00;;;;;;;143.52;133.23;;;;;;;;;;5013122;28;25132;-72
2023/11/11 03:11:26;;;;;;;138.55;128.57;;;;;;;;;;5023992;28;25123;-71
2023/11/11 03:13:52;;;;;;;136.35;126.78;;;;;;;;;;5017060;28;25103;-72
2023/11/11 03:16:18;;;;;;;136.40;126.88;;;;;;;;;;5016768;28;25076;-71
2023/11/11 03:18:47;;;;;;;141.13;130.82;;;;;;;;;;5021443;28;25050;-71
2023/11/11 03:21:20;;;;;;;137.52;128.23;;;;;;;;;;5022579;28;25051;-72
2023/11/11 03:23:46;;;;;;;132.55;123.55;;;;;;;;;;5014770;28;25069;-70
2023/11/11 03:26:13;;;;;;;130.05;121.30;;;;;;;;;;5015781;28;25071;-72
2023/11/11 03:28:39;;;;;;;133.55;124.45;;;;;;;;;;5019390;28;25068;-71
2023/11/11 03:31:06;;;;;;;136.88;127.35;;;;;;;;;;5009798;28;25133;-72
2023/11/11 03:33:32;;;;;;;132.82;123.68;;;;;;;;;;5015050;28;25156;-71
2023/11/11 03:35:58;;;;;;;138.68;128.95;;;;;;;;;;5021733;28;25143;-72
2023/11/11 03:38:24;;;;;;;140.00;130.32;;;;;;;;;;5008343;28;25057;-72
2023/11/11 03:40:50;;;;;;;135.35;126.00;;;;;;;;;;5009017;28;25068;-71
2023/11/11 03:43:16;;;;;;;136.60;127.28;;;;;;;;;;5010908;28;25064;-71
2023/11/11 03:45:42;;;;;;;141.60;131.90;;;;;;;;;;5016978;28;25076;-71
2023/11/11 03:48:08;;;;;;;139.45;129.63;;;;;;;;;;5021871;28;25096;-71
2023/11/11 03:50:34;;;;;;;143.52;133.38;;;;;;;;;;5014670;28;25052;-72
2023/11/11 03:53:00;;;;;;;142.23;131.85;;;;;;;;;;5015211;28;25091;-71
2023/11/11 03:55:26;;;;;;;146.10;135.85;;;;;;;;;;5009059;28;25065;-71
2023/11/11 03:57:52;;;;;;;148.73;138.43;;;;;;;;;;5018189;28;25103;-71
2023/11/11 04:00:19;;;;;;;147.15;136.75;;;;;;;;;;5017635;28;25155;-71
2023/11/11 04:02:46;;;;;;;148.77;138.27;;;;;;;;;;5018216;28;25048;-71
2023/11/11 04:05:16;;;;;;;142.43;132.75;;;;;;;;;;5014369;28;25082;-71
2023/11/11 04:07:42;;;;;;;148.70;137.95;;;;;;;;;;5019179;28;25161;-72
2023/11/11 04:10:08;;;;;;;150.45;139.32;;;;;;;;;;5027382;28;25063;-72
2023/11/11 04:12:34;;;;;;;146.45;135.82;;;;;;;;;;5021743;28;25056;-72
2023/11/11 04:15:00;;;;;;;144.13;134.25;;;;;;;;;;5019776;28;25059;-71
2023/11/11 04:17:26;;;;;;;151.63;140.70;;;;;;;;;;5029282;28;25052;-72
2023/11/11 04:19:52;;;;;;;154.65;143.18;;;;;;;;;;5026080;28;25056;-71
2023/11/11 04:22:18;;;;;;;152.80;141.80;;;;;;;;;;5018996;28;25341;-73
2023/11/11 04:24:44;;;;;;;151.10;140.10;;;;;;;;;;5014882;28;25063;-72
2023/11/11 04:27:11;;;;;;;152.00;141.07;;;;;;;;;;5024187;28;25059;-72
2023/11/11 04:29:37;;;;;;;154.35;143.13;;;;;;;;;;5017706;28;25094;-71
2023/11/11 04:32:04;;;;;;;152.40;141.15;;;;;;;;;;5013573;28;25092;-70
2023/11/11 04:34:30;;;;;;;149.75;138.90;;;;;;;;;;5013562;28;25097;-71
2023/11/11 04:36:57;;;;;;;149.73;138.85;;;;;;;;;;5010106;28;25155;-71
2023/11/11 04:39:23;;;;;;;149.95;139.15;;;;;;;;;;5011051;28;25119;-71
2023/11/11 04:41:49;;;;;;;149.07;137.98;;;;;;;;;;5011922;28;25086;-72
2023/11/11 04:44:16;;;;;;;153.40;141.73;;;;;;;;;;5009289;28;25057;-72
2023/11/11 04:46:42;;;;;;;154.45;142.63;;;;;;;;;;5027853;28;25072;-71
2023/11/11 04:49:09;;;;;;;156.02;144.50;;;;;;;;;;5028267;28;25067;-71
2023/11/11 04:51:35;;;;;;;153.10;141.98;;;;;;;;;;5031153;28;25075;-71
2023/11/11 04:54:01;;;;;;;149.00;137.98;;;;;;;;;;5032354;28;25093;-72
2023/11/11 04:56:27;;;;;;;149.20;137.95;;;;;;;;;;5025876;28;25055;-72
2023/11/11 04:58:53;;;;;;;148.50;137.88;;;;;;;;;;5019856;28;25129;-71
2023/11/11 05:01:21;;;;;;;142.55;132.05;;;;;;;;;;5035594;28;25101;-72
2023/11/11 05:03:48;;;;;;;145.38;134.90;;;;;;;;;;5030554;28;25093;-71
2023/11/11 05:06:17;;;;;;;146.75;135.73;;;;;;;;;;5019141;28;25060;-70
2023/11/11 05:08:45;;;;;;;144.27;133.80;;;;;;;;;;5022350;28;25064;-71
2023/11/11 05:11:12;;;;;;;146.93;136.15;;;;;;;;;;5005171;28;25074;-71
2023/11/11 05:13:41;;;;;;;152.27;140.45;;;;;;;;;;5015422;28;25050;-70
2023/11/11 05:16:24;;;;;;;146.40;135.90;;;;;;;;;;5011459;28;25099;-71
2023/11/11 05:18:50;;;;;;;146.70;136.02;;;;;;;;;;5010880;28;25154;-72
2023/11/11 05:21:16;;;;;;;142.68;132.10;;;;;;;;;;5006174;28;25061;-71
2023/11/11 05:23:42;;;;;;;143.98;133.40;;;;;;;;;;5009255;28;25062;-71
2023/11/11 05:26:08;;;;;;;142.13;132.07;;;;;;;;;;5013611;28;25063;-72
2023/11/11 05:28:34;;;;;;;143.68;132.90;;;;;;;;;;5012481;28;25072;-70
2023/11/11 05:31:00;;;;;;;141.88;131.30;;;;;;;;;;5013533;28;25080;-71
2023/11/11 05:33:26;;;;;;;140.77;130.68;;;;;;;;;;5015667;28;25106;-71
2023/11/11 05:35:52;;;;;;;138.70;128.68;;;;;;;;;;5009427;28;25127;-72
2023/11/11 05:38:18;;;;;;;146.75;136.35;;;;;;;;;;5014984;28;25073;-72
2023/11/11 05:40:44;;;;;;;140.75;131.05;;;;;;;;;;5011369;28;25091;-72
2023/11/11 05:43:10;;;;;;;140.60;130.45;;;;;;;;;;5012210;28;25152;-72
2023/11/11 05:45:36;;;;;;;138.40;129.05;;;;;;;;;;5008203;28;25067;-71
2023/11/11 05:48:03;;;;;;;137.57;128.63;;;;;;;;;;5006864;28;25049;-72
2023/11/11 05:50:29;;;;;;;141.45;131.25;;;;;;;;;;5000134;28;25073;-71
2023/11/11 05:52:55;;;;;;;139.55;129.27;;;;;;;;;;5006598;28;25131;-72
2023/11/11 05:55:21;;;;;;;133.57;124.60;;;;;;;;;;5009642;28;25089;-70
2023/11/11 05:57:47;;;;;;;134.35;125.75;;;;;;;;;;5007193;28;25131;-70
2023/11/11 06:00:14;;;;;;;127.22;118.65;;;;;;;;;;5016389;28;25053;-70
2023/11/11 06:02:40;;;;;;;123.78;115.97;;;;;;;;;;5011443;28;25057;-71
2023/11/11 06:05:06;;;;;;;121.63;114.13;;;;;;;;;;5005816;28;25067;-71
2023/11/11 06:07:32;;;;;;;127.47;119.10;;;;;;;;;;5002758;28;25067;-72
2023/11/11 06:09:58;;;;;;;128.38;120.10;;;;;;;;;;5006663;28;25153;-72
2023/11/11 06:12:24;;;;;;;131.60;123.10;;;;;;;;;;5002677;28;25056;-71
2023/11/11 06:14:50;;;;;;;133.07;124.63;;;;;;;;;;4999586;28;25069;-70
2023/11/11 06:17:16;;;;;;;129.10;120.57;;;;;;;;;;5007507;28;25052;-72
2023/11/11 06:19:42;;;;;;;126.78;118.80;;;;;;;;;;5010574;28;25053;-71
2023/11/11 06:22:09;;;;;;;126.05;118.30;;;;;;;;;;5016332;28;25073;-71
2023/11/11 06:24:36;;;;;;;126.53;118.47;;;;;;;;;;5011007;28;25067;-71
2023/11/11 06:27:02;;;;;;;122.50;114.68;;;;;;;;;;5011179;28;25100;-71
2023/11/11 06:29:28;;;;;;;122.55;114.57;;;;;;;;;;5006502;28;25082;-71
2023/11/11 06:31:55;;;;;;;118.38;110.85;;;;;;;;;;5012540;28;25170;-72
2023/11/11 06:34:21;;;;;;;119.28;111.68;;;;;;;;;;5004451;28;25093;-71
2023/11/11 06:36:47;;;;;;;122.70;114.78;;;;;;;;;;5011408;28;25131;-72
2023/11/11 06:39:13;;;;;;;125.18;117.28;;;;;;;;;;5006026;28;25083;-71
2023/11/11 06:41:41;;;;;;;128.05;119.95;;;;;;;;;;5012786;28;25098;-71
2023/11/11 06:44:07;;;;;;;125.38;117.22;;;;;;;;;;5007432;28;25088;-71
2023/11/11 06:46:33;;;;;;;129.52;120.75;;;;;;;;;;5010592;28;25077;-71
2023/11/11 06:48:59;;;;;;;128.85;120.82;;;;;;;;;;5003793;28;25101;-70
2023/11/11 06:51:25;;;;;;;131.15;122.32;;;;;;;;;;5009485;28;25073;-72
2023/11/11 06:53:51;;;;;;;128.02;119.38;;;;;;;;;;5007543;28;25057;-71
2023/11/11 06:56:18;;;;;;;126.13;117.55;;;;;;;;;;5003023;28;25043;-71
2023/11/11 06:58:44;;;;;;;128.93;120.63;;;;;;;;;;5009309;28;25046;-71
2023/11/11 07:01:10;;;;;;;132.73;123.97;;;;;;;;;;5002057;28;25083;-71
2023/11/11 07:03:36;;;;;;;128.85;120.43;;;;;;;;;;5005647;28;25047;-69
2023/11/11 07:06:03;;;;;;;129.07;120.57;;;;;;;;;;5013728;28;25055;-71
2023/11/11 07:08:30;;;;;;;131.77;123.43;;;;;;;;;;5013355;28;25081;-71
2023/11/11 07:10:56;;;;;;;128.25;119.47;;;;;;;;;;5018583;28;25086;-72
2023/11/11 07:13:23;;;;;;;136.52;127.05;;;;;;;;;;5020666;28;25087;-72
2023/11/11 07:15:49;;;;;;;138.40;129.18;;;;;;;;;;5019737;28;25052;-71
2023/11/11 07:18:16;;;;;;;139.48;129.93;;;;;;;;;;5018623;28;25068;-72
2023/11/11 07:20:42;;;;;;;135.48;126.78;;;;;;;;;;5015746;28;25070;-72
2023/11/11 07:23:08;;;;;;;132.63;123.68;;;;;;;;;;5011806;28;25101;-70
2023/11/11 07:25:35;;;;;;;130.05;121.53;;;;;;;;;;5004401;28;25059;-71
2023/11/11 07:28:04;;;;;;;125.43;117.47;;;;;;;;;;5013038;28;25094;-70
2023/11/11 07:30:30;;;;;;;129.98;121.72;;;;;;;;;;5010857;28;25076;-71
2023/11/11 07:32:58;;;;;;;127.90;120.15;;;;;;;;;;5006922;28;25052;-71
2023/11/11 07:35:25;;;;;;;128.88;120.65;;;;;;;;;;5010886;28;25059;-71
2023/11/11 07:37:52;;;;;;;130.85;122.57;;;;;;;;;;5007029;28;25069;-71
2023/11/11 07:40:18;;;;;;;128.38;120.18;;;;;;;;;;5008341;28;25088;-70
2023/11/11 07:42:44;;;;;;;126.93;118.72;;;;;;;;;;5006709;28;25053;-70
2023/11/11 07:45:11;;;;;;;130.07;121.47;;;;;;;;;;5010315;28;25081;-71
2023/11/11 07:47:38;;;;;;;125.55;117.20;;;;;;;;;;5003157;28;25153;-71
2023/11/11 07:50:05;;;;;;;118.68;111.75;;;;;;;;;;4999052;28;25076;-71
2023/11/11 07:52:31;;;;;;;124.10;116.20;;;;;;;;;;4980784;28;25075;-73
2023/11/11 07:54:58;;;;;;;122.30;114.30;;;;;;;;;;4982531;28;25058;-72
2023/11/11 07:57:25;;;;;;;123.72;116.20;;;;;;;;;;4982245;28;25105;-71
2023/11/11 07:59:51;;;;;;;124.53;116.40;;;;;;;;;;4986194;28;25062;-72
2023/11/11 08:02:17;;;;;;;124.68;116.40;;;;;;;;;;4995243;28;25161;-71
2023/11/11 08:04:43;;;;;;;126.00;117.65;;;;;;;;;;5004681;28;25085;-71
2023/11/11 08:07:11;;;;;;;117.97;109.90;;;;;;;;;;5002831;28;25123;-72
2023/11/11 08:09:37;;;;;;;119.45;111.72;;;;;;;;;;4993012;28;25133;-72
2023/11/11 08:12:04;;;;;;;117.47;109.95;;;;;;;;;;4999514;28;25058;-72
2023/11/11 08:14:30;;;;;;;115.65;108.15;;;;;;;;;;4985573;28;25083;-71
2023/11/11 08:16:58;;;;;;;113.43;105.82;;;;;;;;;;4987642;28;25044;-70
2023/11/11 08:19:24;;;;;;;117.38;109.50;;;;;;;;;;4990219;28;25156;-71
2023/11/11 08:21:50;;;;;;;112.47;105.18;;;;;;;;;;4988517;28;25087;-69
2023/11/11 08:24:16;;;;;;;108.22;101.38;;;;;;;;;;4986334;28;25139;-72
2023/11/11 08:26:42;;;;;;;104.50;97.25;;;;;;;;;;4982552;28;25074;-70
2023/11/11 08:29:08;;;;;;;107.35;100.00;;;;;;;;;;4989652;28;25082;-70
2023/11/11 08:31:34;;;;;;;111.68;103.97;;;;;;;;;;4987479;28;25079;-71
2023/11/11 08:34:01;;;;;;;106.15;98.80;;;;;;;;;;4989874;28;25145;-70
2023/11/11 08:36:27;;;;;;;104.43;97.60;;;;;;;;;;4990557;28;25125;-72
2023/11/11 08:38:53;;;;;;;97.97;91.60;;;;;;;;;;5002205;28;25119;-71
2023/11/11 08:41:19;;;;;;;97.32;90.72;;;;;;;;;;5006907;28;25138;-72
2023/11/11 08:43:45;;;;;;;102.38;95.60;;;;;;;;;;5006771;28;25082;-70
2023/11/11 08:46:12;;;;;;;102.78;96.22;;;;;;;;;;4996351;28;25047;-71
2023/11/11 08:48:41;;;;;;;105.60;98.15;;;;;;;;;;4986368;28;25096;-71
2023/11/11 08:51:08;;;;;;;100.15;93.65;;;;;;;;;;5003850;28;25173;-70
2023/11/11 08:53:34;;;;;;;94.78;88.72;;;;;;;;;;4996384;28;25062;-71
2023/11/11 08:56:00;;;;;;;94.95;89.10;;;;;;;;;;4997068;28;25134;-71
2023/11/11 08:58:26;;;;;;;90.85;85.15;;;;;;;;;;4980607;28;25054;-71
2023/11/11 09:00:53;;;;;;;85.28;79.90;;;;;;;;;;4998455;28;25075;-72
2023/11/11 09:03:19;;;;;;;88.78;83.10;;;;;;;;;;5001769;28;25054;-69
2023/11/11 09:05:45;;;;;;;83.28;77.72;;;;;;;;;;5001654;28;25149;-71
2023/11/11 09:08:11;;;;;;;74.60;69.90;;;;;;;;;;5007179;28;25082;-71
2023/11/11 09:10:37;;;;;;;75.95;71.55;;;;;;;;;;5007071;28;25094;-71
2023/11/11 09:13:03;;;;;;;77.13;71.60;;;;;;;;;;5003066;28;25108;-71
2023/11/11 09:15:33;;;;;;;67.65;63.05;;;;;;;;;;5006873;28;25107;-71
2023/11/11 09:18:00;;;;;;;63.65;59.53;;;;;;;;;;5001233;28;25065;-71
2023/11/11 09:20:29;;;;;;;62.35;58.67;;;;;;;;;;4999475;28;25052;-70
2023/11/11 09:22:56;;;;;;;59.40;55.60;;;;;;;;;;4983983;28;25081;-70
2023/11/11 09:25:22;;;;;;;57.40;54.00;;;;;;;;;;4991249;28;25147;-69
2023/11/11 09:27:48;;;;;;;49.20;46.30;;;;;;;;;;4992571;28;25092;-70
2023/11/11 09:30:17;;;;;;;46.78;43.97;;;;;;;;;;4999305;28;25076;-71
2023/11/11 09:32:43;;;;;;;33.30;31.30;;;;;;;;;;4990352;28;25066;-70
2023/11/11 09:35:13;;;;;;;24.70;22.73;;;;;;;;;;4997252;28;25069;-70
2023/11/11 09:37:40;;;;;;;20.45;18.98;;;;;;;;;;4986158;28;25106;-70
2023/11/11 09:40:09;;;;;;;14.90;13.77;;;;;;;;;;4989188;28;25059;-70
2023/11/11 09:42:37;;;;;;;15.93;14.40;;;;;;;;;;4987779;28;25093;-70
2023/11/11 09:45:03;;;;;;;12.52;11.35;;;;;;;;;;4993915;28;25074;-70
2023/11/11 09:47:32;;;;;;;11.43;10.30;;;;;;;;;;4992489;28;25107;-72
2023/11/11 09:50:00;;;;;;;8.52;7.75;;;;;;;;;;5007716;28;25104;-71
2023/11/11 09:52:27;;;;;;;8.48;5.32;;;;;;;;;;5003471;28;25064;-71
2023/11/11 09:54:53;;;;;;;9.20;4.78;;;;;;;;;;5010528;28;25103;-70
2023/11/11 09:57:20;;;;;;;4.50;2.40;;;;;;;;;;5008499;28;25062;-71
2023/11/11 09:59:47;;;;;;;7.45;2.60;;;;;;;;;;5010503;28;25067;-72
2023/11/11 10:02:15;;;;;;;4.40;2.42;;;;;;;;;;5010628;28;25078;-70
2023/11/11 10:04:41;;;;;;;4.10;1.75;;;;;;;;;;5009748;28;25051;-71
2023/11/11 10:07:07;;;;;;;8.90;2.03;;;;;;;;;;5008171;28;25070;-71
2023/11/11 10:09:33;;;;;;;5.93;1.58;;;;;;;;;;5010550;28;25115;-71
2023/11/11 10:11:59;;;;;;;5.38;1.77;;;;;;;;;;4995958;28;25142;-71
2023/11/11 10:14:26;;;;;;;6.32;1.42;;;;;;;;;;4999951;28;25081;-71
2023/11/11 10:16:54;;;;;;;3.20;1.40;;;;;;;;;;5011847;28;25102;-73
2023/11/11 10:19:22;;;;;;;5.53;1.40;;;;;;;;;;5006771;28;25101;-71
2023/11/11 10:21:48;;;;;;;3.58;1.50;;;;;;;;;;5000920;28;25046;-71
2023/11/11 10:24:16;;;;;;;7.85;1.70;;;;;;;;;;4995842;28;25068;-71
2023/11/11 10:26:42;;;;;;;5.85;1.40;;;;;;;;;;4990036;28;25194;-71
2023/11/11 10:29:08;;;;;;;4.43;1.45;;;;;;;;;;4990394;28;25130;-71
2023/11/11 10:31:36;;;;;;;4.40;1.25;;;;;;;;;;4987372;28;25064;-72
2023/11/11 10:34:02;;;;;;;7.68;1.40;;;;;;;;;;4988356;28;25065;-72
2023/11/11 10:36:28;;;;;;;5.85;1.20;;;;;;;;;;5006060;28;25107;-72
2023/11/11 10:38:54;;;;;;;5.60;1.88;;;;;;;;;;5009567;28;25097;-72
2023/11/11 10:41:22;;;;;;;4.75;1.58;;;;;;;;;;4998996;28;26232;-72
2023/11/11 10:43:48;;;;;;;3.25;1.38;;;;;;;;;;5002121;28;25057;-71
2023/11/11 10:46:14;;;;;;;4.57;0.98;;;;;;;;;;4990740;28;25074;-72
2023/11/11 10:48:41;;;;;;;1.60;0.88;;;;;;;;;;4987531;28;25070;-71
2023/11/11 10:51:07;;;;;;;3.72;1.23;;;;;;;;;;5001647;28;25078;-72
2023/11/11 10:53:36;;;;;;;4.53;1.20;;;;;;;;;;5008364;28;25058;-73
2023/11/11 10:56:03;;;;;;;7.53;1.58;;;;;;;;;;5000979;28;25145;-71
2023/11/11 10:58:31;;;;;;;9.05;1.35;;;;;;;;;;4988098;28;25147;-72
2023/11/11 11:00:58;;;;;;;2.72;1.00;;;;;;;;;;4997908;28;25122;-71
2023/11/11 11:03:25;;;;;;;1.88;1.17;;;;;;;;;;4996606;28;25068;-71
2023/11/11 11:06:02;;;;;;;4.25;1.13;;;;;;;;;;5011799;28;25152;-72
2023/11/11 11:08:28;;;;;;;7.53;1.23;;;;;;;;;;5010333;28;25084;-72
2023/11/11 11:11:03;;;;;;;6.88;1.08;;;;;;;;;;4994621;28;25098;-72
2023/11/11 11:13:30;;;;;;;3.80;1.50;;;;;;;;;;4992260;28;25058;-70
2023/11/11 11:15:56;;;;;;;5.55;1.20;;;;;;;;;;4989422;28;25180;-73
2023/11/11 11:18:23;;;;;;;2.38;1.13;;;;;;;;;;5004962;28;25063;-72
2023/11/11 11:20:52;;;;;;;2.40;1.27;;;;;;;;;;4996135;28;25107;-71
2023/11/11 11:23:18;;;;;;;5.60;1.33;;;;;;;;;;5001859;28;25053;-72
2023/11/11 11:25:45;;;;;;;3.35;1.60;;;;;;;;;;5012126;28;25147;-71
2023/11/11 11:28:11;;;;;;;6.43;1.20;;;;;;;;;;5009004;28;25159;-71
2023/11/11 11:30:40;;;;;;;4.75;1.63;;;;;;;;;;5008497;28;25063;-72
2023/11/11 11:33:06;;;;;;;4.85;1.70;;;;;;;;;;5007070;28;25144;-73
2023/11/11 11:35:35;;;;;;;3.78;1.23;;;;;;;;;;5014046;28;25063;-72
2023/11/11 11:38:03;;;;;;;4.40;1.23;;;;;;;;;;5005531;28;25052;-69
2023/11/11 11:40:29;;;;;;;5.07;1.35;;;;;;;;;;5004448;28;25169;-72
2023/11/11 11:42:57;;;;;;;2.78;1.35;;;;;;;;;;5008880;28;25061;-70
2023/11/11 11:45:32;;;;;;;3.63;1.48;;;;;;;;;;5009346;28;25048;-69
2023/11/11 11:47:58;;;;;;;5.80;1.30;;;;;;;;;;5000088;28;25063;-72
2023/11/11 11:50:24;;;;;;;2.05;1.15;;;;;;;;;;4991885;28;25048;-71
2023/11/11 11:52:50;;;;;;;6.05;1.35;;;;;;;;;;4999791;28;25136;-71
2023/11/11 11:55:16;;;;;;;4.68;1.05;;;;;;;;;;5001464;28;25115;-70
2023/11/11 11:57:55;;;;;;;6.20;1.33;;;;;;;;;;4989745;28;25105;-71
2023/11/11 12:00:21;;;;;;;5.97;1.70;;;;;;;;;;4984845;28;25067;-71
2023/11/11 12:02:47;;;;;;;3.92;1.30;;;;;;;;;;4997170;28;25066;-70
2023/11/11 12:05:15;;;;;;;5.30;1.58;;;;;;;;;;4981238;28;25114;-72
2023/11/11 12:07:41;;;;;;;3.10;1.35;;;;;;;;;;4990656;28;25059;-71
2023/11/11 12:10:11;;;;;;;5.75;1.48;;;;;;;;;;4994642;28;25122;-71
2023/11/11 12:12:38;;;;;;;7.35;1.42;;;;;;;;;;5007033;28;25058;-71
2023/11/11 12:15:15;;;;;;;1.17;1.05;;;;;;;;;;5006526;28;25073;-70
2023/11/11 12:17:42;;;;;;;5.50;1.30;;;;;;;;;;4991904;28;25047;-69
2023/11/11 12:20:08;;;;;;;2.97;1.33;;;;;;;;;;4990441;28;25126;-69
2023/11/11 12:22:35;;;;;;;3.63;1.27;;;;;;;;;;4985540;28;25073;-70
2023/11/11 12:25:01;;;;;;;3.67;1.23;;;;;;;;;;4992825;28;25068;-70
2023/11/11 12:27:28;;;;;;;3.90;1.65;;;;;;;;;;4990198;28;25072;-69
2023/11/11 12:29:56;;;;;;;3.38;1.00;;;;;;;;;;4986571;28;25164;-71
2023/11/11 12:32:23;;;;;;;6.40;1.50;;;;;;;;;;4989102;28;25096;-70
2023/11/11 12:34:50;;;;;;;2.72;1.10;;;;;;;;;;4983677;28;25129;-69
2023/11/11 12:37:20;;;;;;;3.50;1.27;;;;;;;;;;4990693;28;25082;-70
2023/11/11 12:39:52;;;;;;;2.47;1.17;;;;;;;;;;4985731;28;25108;-71
2023/11/11 12:42:25;;;;;;;3.95;1.42;;;;;;;;;;4987996;28;25136;-69
2023/11/11 12:44:52;;;;;;;7.85;1.48;;;;;;;;;;4980657;28;25110;-70
2023/11/11 12:47:18;;;;;;;4.18;1.45;;;;;;;;;;4983194;28;25185;-68
2023/11/11 12:49:50;;;;;;;8.05;1.23;;;;;;;;;;4986281;28;25067;-70
2023/11/11 12:52:17;;;;;;;2.78;1.15;;;;;;;;;;4982713;28;25076;-71
2023/11/11 12:54:43;;;;;;;4.75;1.10;;;;;;;;;;4989657;28;25075;-71
2023/11/11 12:57:11;;;;;;;2.55;1.20;;;;;;;;;;4980107;28;25071;-70
2023/11/11 12:59:37;;;;;;;3.47;1.20;;;;;;;;;;4981923;28;25069;-69
2023/11/11 13:02:04;;;;;;;3.40;1.30;;;;;;;;;;4985245;28;25069;-69
2023/11/11 13:04:30;;;;;;;5.28;0.98;;;;;;;;;;4986899;28;25085;-68
2023/11/11 13:06:56;;;;;;;3.80;1.20;;;;;;;;;;4983708;28;25079;-69
2023/11/11 13:09:23;;;;;;;3.70;1.13;;;;;;;;;;4993101;28;25059;-71
2023/11/11 13:11:51;;;;;;;2.53;1.10;;;;;;;;;;4981095;28;25078;-68
2023/11/11 13:14:19;;;;;;;2.03;1.08;;;;;;;;;;4981720;28;25055;-70
2023/11/11 13:16:47;;;;;;;5.45;1.15;;;;;;;;;;4980795;28;25073;-70
2023/11/11 13:19:13;;;;;;;3.08;1.20;;;;;;;;;;4979661;28;25071;-68
2023/11/11 13:21:40;;;;;;;5.28;1.30;;;;;;;;;;4974932;28;25149;-70
2023/11/11 13:24:06;;;;;;;3.75;0.90;;;;;;;;;;4989404;28;25129;-69
2023/11/11 13:26:33;;;;;;;5.13;1.23;;;;;;;;;;4986738;28;25143;-69
2023/11/11 13:29:02;;;;;;;7.53;1.30;;;;;;;;;;4992551;28;25067;-73
2023/11/11 13:31:29;;;;;;;7.20;0.95;;;;;;;;;;4993248;28;25045;-70
2023/11/11 13:33:56;;;;;;;4.78;1.05;;;;;;;;;;4993154;28;25101;-70
2023/11/11 13:36:34;;;;;;;5.13;1.20;;;;;;;;;;4989940;28;25076;-70
2023/11/11 13:39:02;;;;;;;2.88;1.10;;;;;;;;;;4982967;28;25085;-70
2023/11/11 13:41:36;;;;;;;2.45;1.10;;;;;;;;;;5002934;28;25068;-70
2023/11/11 13:44:03;;;;;;;2.75;1.10;;;;;;;;;;5008341;28;25070;-69
2023/11/11 13:46:31;;;;;;;3.53;1.00;;;;;;;;;;5012448;28;25075;-70
2023/11/11 13:48:59;;;;;;;3.70;1.45;;;;;;;;;;5007659;28;25202;-70
2023/11/11 13:51:25;;;;;;;3.85;1.00;;;;;;;;;;5003805;28;25067;-71
2023/11/11 13:53:55;;;;;;;3.17;0.93;;;;;;;;;;5000369;28;25062;-69
2023/11/11 13:56:22;;;;;;;2.38;1.40;;;;;;;;;;5001139;28;25060;-70
2023/11/11 13:58:51;;;;;;;3.63;1.33;;;;;;;;;;4995323;28;25066;-70
2023/11/11 14:01:18;;;;;;;3.53;1.02;;;;;;;;;;4993209;28;25048;-70
2023/11/11 14:03:47;;;;;;;4.55;1.08;;;;;;;;;;5007843;28;25057;-70
2023/11/11 14:06:13;;;;;;;1.65;1.00;;;;;;;;;;5003152;28;25145;-71